Terminal Aerodrome Forecast
Issued by NWS

Home | Current Version | Previous Version | Text Only | Print | Product List | Glossary On
Versions: 1 2 3 4 5 6 7 8 9 10 11 12 13 14
000
FTUS41 KBTV 011737
TAFMPV
TAF
KMPV 011737Z 0118/0218 18007KT P6SM VCSH BKN020 OVC035
      TEMPO 0118/0121 16011G18KT 2SM +SHRA BKN012 OVC025
     FM012300 22008KT P6SM BKN040
     FM020600 26009KT P6SM BKN030
     FM021500 29010G17KT P6SM FEW150=

USA.gov is the U.S. government's official web portal to all federal, state and local government web resources and services.